Nearby METAR Reports

Meteorological Terminal Air Report (METAR)

K3I2 - Pt Pleasant, West Virginia, USA
Distance from station: S 11mi, 18km
Updated: Sat, 28-Nov-2020 11:15pm EST
Clear
Clear
 Wind from calm
Wind: Calm
Temperature: 30°F , -1°C
Dew Point: 28°F , -2°C
Humidity: 93%
Barometer: 30.22 inHg , 1023.4 hPa
Clouds: Clear
Visibility: 10 miles , 16 km
2020/11/29 04:15 K3I2 290415Z AUTO 00000KT 10SM CLR M01/M02 A3022 RMK AO2 T10081022
KUNI - Athens, Ohio, USA
Distance from station: NW 13mi, 21km
Updated: Sat, 28-Nov-2020 11:15pm EST
Clear
Clear
 Wind from calm
Wind: Calm
Temperature: 28°F , -2°C
Dew Point: 28°F , -2°C
Humidity: 100%
Barometer: 30.19 inHg , 1022.4 hPa
Clouds: Clear
Visibility: 10 miles , 16 km
2020/11/29 04:15 KUNI 290415Z AUTO 00000KT 10SM CLR M02/M02 A3019 RMK AO2 T10161016
 
KPKB - Parkersburg, West Virginia, USA
Distance from station: ENE 40mi, 65km
Updated: Sat, 28-Nov-2020 10:53pm EST
Clear
Clear
 Wind from calm
Wind: Calm
Temperature: 30°F , -1°C
Dew Point: 27°F , -3°C
Humidity: 86%
Barometer: 30.19 inHg , 1022.4 hPa
Clouds: Clear
Visibility: 10 miles , 16 km
2020/11/29 03:53 KPKB 290353Z 00000KT 10SM CLR M01/M03 A3019 RMK AO2 SLP227 T10061028
KCRW - Charleston, West Virginia, USA
Distance from station: SSE 55mi, 88km
Updated: Sat, 28-Nov-2020 10:54pm EST
Clear
Clear
 Wind from calm
Wind: Calm
Temperature: 36°F , 2°C
Dew Point: 32°F , 0°C
Humidity: 87%
Barometer: 30.19 inHg , 1022.4 hPa
Clouds: Clear
Visibility: 10 miles , 16 km
2020/11/29 03:54 KCRW 290354Z 00000KT 10SM CLR 02/00 A3019 RMK AO2 SLP228 T00170000
 
KHTS - Huntington, West Virginia, USA
Distance from station: SSW 55mi, 89km
Updated: Sat, 28-Nov-2020 10:51pm EST
Clear
Clear
 Wind from calm
Wind: Calm
Temperature: 36°F , 2°C
Dew Point: 30°F , -1°C
Humidity: 81%
Barometer: 30.18 inHg , 1022 hPa
Clouds: Clear
Visibility: 10 miles , 16 km
2020/11/29 03:51 KHTS 290351Z 00000KT 10SM CLR 02/M01 A3018 RMK AO2 SLP225 T00171011
KLHQ - Lancaster, Ohio, USA
Distance from station: NW 56mi, 91km
Updated: Sat, 28-Nov-2020 10:53pm EST
Mist, Clear
Mist, Clear
 Wind from calm
Wind: Calm
Temperature: 28°F , -2°C
Dew Point: 27°F , -3°C
Humidity: 93%
Barometer: 30.18 inHg , 1022 hPa
Summary: Mist
Clouds: Clear
Visibility: 6 miles , 10 km
2020/11/29 03:53 KLHQ 290353Z AUTO 00000KT 6SM BR CLR M02/M03 A3018 RMK AO2 SLP228 I1001 T10171033 $
 
KZZV - Zanesville, Ohio, USA
Distance from station: N 61mi, 99km
Updated: Sat, 28-Nov-2020 10:53pm EST
Clear
Clear
 Wind from SSW
Wind: SSW 3 mph , 6 km/h
Temperature: 30°F , -1°C
Dew Point: 28°F , -2°C
Humidity: 93%
Barometer: 30.17 inHg , 1021.7 hPa
Clouds: Clear
Visibility: 10 miles , 16 km
2020/11/29 03:53 KZZV 290353Z AUTO 21003KT 10SM CLR M01/M02 A3017 RMK AO2 SLP224 T10061022
KLCK - Rickenbacker Ang, Ohio, USA
Distance from station: NW 68mi, 110km
Updated: Sat, 28-Nov-2020 10:55pm EST
Mist, Clear
Mist, Clear
 Wind from SSW
Wind: SSW 3 mph , 6 km/h
Temperature: 30°F , -1°C
Dew Point: 28°F , -2°C
Humidity: 93%
Barometer: 30.18 inHg , 1022 hPa
Summary: Mist
Clouds: Clear
Visibility: 5 miles , 8 km
2020/11/29 03:55 KLCK 290355Z AUTO 21003KT 5SM BR CLR M01/M02 A3018 RMK AO2 T10101021
 
KVTA - Newark, Ohio, USA
Distance from station: NNW 68mi, 110km
Updated: Sat, 28-Nov-2020 10:54pm EST
Haze, Clear
Haze, Clear
 Wind from calm
Wind: Calm
Temperature: 30°F , -1°C
Dew Point: 27°F , -3°C
Humidity: 86%
Barometer: 30.16 inHg , 1021.3 hPa
Summary: Haze
Clouds: Clear
Visibility: 4 miles , 6 km
2020/11/29 03:54 KVTA 290354Z AUTO 00000KT 4SM HZ CLR M01/M03 A3016 RMK AO2 SLP221 T10061033